ACT        NSW        VIC        QLD        SA        WA        TAS        NT        INFO        CALC            by VK5ZD

Past Date/Time: (dd/mm/yyyy hh:mm or blank for current data)    

  Atmospheric Gas Attenuation - ITU Rec 676-11   --------------- dB/100km ---------------
WA Stations Date Time Temp RH % AH g/m3 Dew Point Wind Direction Speed kph Gust kph Barometer mB Rainfall Since 9am 24GHz 47GHz 76GHz 122GHz 134GHz 241GHz
Albany 10/05 09:00 14 69 8.32 8.4 7 1013.1 0 19.0 25.4 38.6 101.2 94.5 324.7
Albany Airport 10/05 13:00 20.9 46 8.38 8.9 15 22 1025.6 0 18.8 24.0 36.1 94.6 88.2 303.5
Badgingarra 10/05 13:00 22.2 26 5.1 1.8 17 26 1013.1 0 11.9 18.8 24.1 62.7 49.7 168.7
Barimunya 10/05 13:00 22.4 16 3.18 -4.6 19 28 1018 0 7.9 16.6 18.5 47.4 30.7 101.7
Barrow Island 10/05 13:00 25.8 41 9.87 11.6 32 37 1016 0 21.7 24.6 38.9 102.1 99.4 343.3
Bedout Island 10/05 13:00 27.3 36 9.42 10.9 33 39 1015 0 20.7 23.5 36.5 95.9 92.3 318.8
Beverley 10/05 09:00 13.6 80 9.42 10.2 0 1013.1 0 21.4 27.3 43.2 113.6 109.7 377.9
Bickley 10/05 13:00 19.7 39 6.62 5.4 13 22 1013.1 0 15.1 21.4 29.9 78.1 68.0 232.6
Boolgeeda 10/05 13:00 24.1 16 3.5 -3.3 7 17 1016.6 0 8.5 16.6 19.0 48.8 33.1 110.2
Bridgetown 10/05 13:00 21.3 39 7.27 6.8 13 20 1024.4 0 16.4 22.3 32.0 83.5 74.7 256.1
Broome 10/05 13:00 30.3 34 10.48 12.7 17 24 1013 0 22.7 24.2 38.7 101.9 100.5 348.0
Bulga Downs 10/05 09:00 15.4 56 7.36 6.8 15 1027 0 16.9 24.0 34.8 91.0 81.7 280.0
Bunbury 10/05 13:00 22.2 44 8.64 9.4 15 20 1024.1 0 19.3 24.0 36.4 95.5 89.7 309.0
Busselton Airport 10/05 13:00 19.8 53 9.05 10 24 32 1023.9 0 20.2 25.3 39.1 102.4 97.5 336.1
Cape Leeuwin 10/05 13:00 23 43 8.84 9.8 20 28 1023.1 0 19.6 24.1 36.8 96.3 91.1 314.0
Cape Naturaliste 10/05 13:00 21.1 61 11.24 13.3 33 43 1023.4 0 24.8 28.3 46.9 123.3 123.7 427.8
Carnarvon 10/05 13:00 26.7 12 3.04 -5 20 35 1018.8 0 7.5 15.7 17.2 44.1 28.0 92.4
Christmas Creek 10/05 13:00 23.4 15 3.15 -4.7 17 30 1018.3 0 7.8 16.4 18.2 46.7 30.1 99.6
Christmas Island 10/05 13:00 27.7 80 21.4 23.9 20 30 1010.2 0 45.8 43.2 85.6 226.5 253.0 879.4
Cocos Island 10/05 13:00 30.6 81 25.38 27 20 26 1010.7 2.8 53.8 49.4 101.7 269.3 306.3 1064.9
Collie East 10/05 13:00 21.4 37 6.94 6.1 11 20 1013.1 0 15.8 21.4 30.4 79.4 70.1 240.3
Coondewanna 10/05 13:00 21.9 15 2.89 -5.9 20 35 1017.9 0 7.3 16.3 17.7 45.5 28.2 92.5
Cunderdin Airport 10/05 13:00 21.9 33 6.37 4.9 13 22 1025.2 0 14.5 20.9 28.7 74.8 64.1 219.1
Curtin 10/05 13:00 31.1 30 9.65 11.5 11 20 1011.8 0 21.0 22.8 35.5 93.4 90.3 312.3
Cygnet Bay 10/05 09:00 25.4 64 15.07 18.3 1015.1 0 32.6 32.9 59.3 156.7 166.5 577.7
Dalwallinu 10/05 13:00 21.7 26 4.96 1.4 19 30 1023.7 0 11.6 19.1 24.2 62.6 49.1 166.2
Dwellingup 10/05 13:00 20.6 37 6.62 5.4 9 15 1024.8 0 15.1 21.6 30.0 78.2 67.9 232.4
Eliwana Airport 10/05 13:00 24.7 17 3.85 -2 11 22 1013.1 0 9.2 16.8 19.7 51.0 36.1 120.8
Esperance 10/05 13:00 17.7 72 10.86 12.6 13 17 1029.1 0 24.2 29.0 47.6 125.2 124.6 430.5
Esperance Airport 10/05 13:00 18.9 64 10.37 11.9 9 13 1029 0 23.1 27.8 44.9 118.0 116.1 401.1
Eucla 10/05 13:00 17.2 82 12.01 14.1 11 15 1028.5 0.8 26.6 31.1 52.8 139.0 141.5 489.4
Eyre 10/05 09:00 16.5 84 11.79 13.8 2 1031.7 0.8 26.2 31.1 52.5 138.1 140.0 484.0
Fitzroy Crossing 10/05 13:00 31.5 27 8.88 10.2 1012.7 0 19.3 21.7 32.9 86.3 81.8 282.2
Forrest 10/05 13:00 18.9 59 9.56 10.7 13 20 1028.1 0 21.4 26.5 41.7 109.3 105.5 363.8
Fortescue Dave Forrest 10/05 13:00 23.2 16 3.33 -4 20 33 1018 0 8.2 16.6 18.7 48.1 31.9 105.8
Garden Island 10/05 13:00 23.1 38 7.85 8 15 20 1024.3 0 17.6 22.7 33.3 87.0 79.6 273.6
Geraldton Airport 10/05 13:00 27 14 3.6 -2.7 17 24 1021.5 0 8.7 16.4 18.8 48.2 33.1 110.3
Gerangamete (Cfa) 10/05 14:50 15.7 75 10.03 11.4 7 11 1013.1 0 22.5 27.7 44.6 117.3 114.9 396.4
Giles* 10/05 14:30 21.8 28 5.37 2.5 13 24 1021.1 0 12.5 19.5 25.4 65.8 53.2 180.7
Gingin Airport 10/05 13:00 23.4 28 5.89 3.9 20 32 1023.9 0 13.5 19.9 26.6 69.2 57.7 196.9
Golden Grove 10/05 13:00 21.6 24 4.55 0.2 20 35 1022.9 0 10.8 18.6 22.9 59.2 44.8 151.3
Gooseberry Hill 10/05 13:00 22.5 33 6.59 5.4 15 24 1013.1 0 15.0 20.7 28.8 75.2 65.3 223.7
Gudai-Darri Mine 10/05 13:00 23.7 16 3.42 -3.6 19 30 1013.1 0 8.4 16.5 18.7 48.2 32.4 107.7
Halls Creek 10/05 14:30 27.4 26 6.84 6.2 9 13 1013.7 0 15.3 20.0 28.0 73.1 64.2 220.0
Hopetoun North 10/05 13:00 21.1 51 9.4 10.6 11 20 1026.6 0.2 20.9 25.6 39.9 104.5 100.5 346.5
Hyden 10/05 09:00 10.5 89 8.63 8.7 4 1013.1 0 19.8 26.9 41.6 109.3 103.1 354.5
Iron Bridge Mine 10/05 13:00 26.9 17 4.35 -0.2 17 32 1016.1 0 10.2 17.1 20.7 53.6 39.9 134.6
Jacup 10/05 13:00 19.8 44 7.51 7.2 19 28 1026.7 0 17.0 23.1 33.5 87.5 79.1 271.3
Jandakot 10/05 13:00 23.4 31 6.52 5.3 15 22 1024.1 0 14.8 20.8 28.7 74.7 64.5 220.7
Jarrahwood 10/05 09:00 15.5 64 8.46 8.7 11 1013.1 0 19.2 25.2 38.4 100.7 94.5 324.9
Kalbarri 10/05 09:00 20.1 20 3.48 -3.1 26 1022.4 0 8.6 17.5 20.0 51.4 34.7 115.4
Kalgoorlie-Boulder 10/05 13:00 19.5 48 8.06 8.2 13 19 1026.8 0 18.2 24.0 35.6 93.2 85.9 295.4
Kalumburu 10/05 14:30 32.7 34 11.92 15.2 11 19 1011.6 0 25.5 25.5 42.5 111.9 113.5 393.8
Karijini North 10/05 13:00 24.8 14 3.19 -4.5 19 37 1017.1 0 7.9 16.2 18.0 46.1 30.0 99.2
Karnet 10/05 09:00 14 62 7.48 6.9 2 1013.1 0 17.2 24.1 35.3 92.5 83.7 287.0
Karratha 10/05 13:00 27.6 27 7.18 6.9 28 35 1015.9 0 16.0 20.5 29.1 75.9 67.7 232.3
Katanning Rs 10/05 13:00 20.4 41 7.25 6.7 15 24 1025.6 0 16.4 22.5 32.3 84.3 75.4 258.4
Koolan Island / Koolan Central 10/05 13:00 27.3 47 12.3 15 11 17 1013.1 0 26.7 27.7 46.9 123.5 126.3 437.9
Kununurra Airport 10/05 14:30 31.9 31 10.41 12.7 17 37 1012.6 0 22.5 23.6 37.7 99.2 97.8 338.4
Lake Grace 10/05 13:00 20.3 40 7.03 6.3 15 22 1026.3 0 16.0 22.3 31.6 82.4 73.0 250.0
Lancelin (Defence) 10/05 13:00 25.4 22 5.18 2.2 9 17 1022.7 0 12.0 18.6 23.8 61.6 49.1 166.6
Laverton 10/05 13:00 20.4 36 6.37 4.8 17 28 1025.2 0 14.6 21.3 29.2 76.2 65.3 223.1
Learmonth 10/05 13:00 27 26 6.69 5.9 19 24 1017.3 0 15.0 20.0 27.8 72.4 63.1 216.3
Legendre Island 10/05 13:00 26.4 37 9.21 10.5 33 39 1015.9 0 20.3 23.5 36.3 95.1 91.0 314.1
Leinster 10/05 13:00 21.4 30 5.62 3.1 15 33 1023 0 13.0 20.0 26.3 68.5 56.2 191.3
Leonora Airport 10/05 13:00 21.2 31 5.74 3.4 17 24 1024.9 0 13.3 20.2 26.9 69.8 57.7 196.6
Lombadina 10/05 13:00 28.7 49 13.85 17.2 15 26 1012.4 0 29.8 29.6 51.9 137.0 143.3 497.5
Mandora 10/05 13:00 31.8 19 6.35 5.3 15 24 1014.4 0 14.2 18.5 25.2 65.6 56.2 192.3
Mandurah 10/05 13:00 21.7 54 10.3 12 9 13 1024.1 0 22.8 26.7 42.9 112.6 110.7 382.5
Manjimup 10/05 13:00 21.6 38 7.21 6.7 19 26 1024.6 0 16.3 22.1 31.7 82.7 73.7 252.8
Marble Bar 10/05 13:00 27.1 16 4.14 -0.9 13 24 1016.4 0 9.8 16.9 20.1 51.9 37.9 127.4
Mardie 10/05 13:00 29.4 19 5.58 3.4 13 17 1015.8 0 12.7 18.1 23.6 61.4 50.3 171.5
Meekatharra 10/05 13:00 22.4 20 3.97 -1.6 20 30 1021.6 0 9.5 17.6 20.9 53.9 38.6 129.2
Millendon (Swan Valley) 10/05 13:00 23.7 28 5.99 4.1 9 17 1023.7 0 13.7 20.0 26.8 69.8 58.6 199.9
Morawa Airport 10/05 13:00 23 22 4.52 0.2 15 26 1022.9 0 10.7 18.2 22.4 58.0 43.8 147.8
Mount Keith 10/05 13:00 20.9 26 4.73 0.7 17 28 1022.9 0 11.2 18.9 23.6 61.2 47.1 159.2
Mount Magnet Airport 10/05 13:00 21.9 21 4.05 -1.4 15 24 1022.9 0 9.7 17.9 21.3 54.9 39.6 133.0
Mullewa 10/05 09:00 17 35 5.06 1.5 26 1013.1 0 12.0 19.8 25.5 66.4 52.6 178.0
Munglinup West 10/05 13:00 19.2 57 9.4 10.5 13 19 1027.5 0 21.0 26.1 40.9 107.2 103.0 355.1
Murchison 10/05 09:00 21.9 67 12.93 15.6 28 1023.7 0 28.3 30.9 53.3 140.5 145.1 502.5
Narrogin 10/05 09:00 14.8 60 7.6 7.2 4 1013.1 0 17.4 24.0 35.4 92.7 84.3 289.4
Newdegate 10/05 13:00 19.7 42 7.13 6.4 15 22 1026.2 0 16.2 22.5 32.2 84.0 74.7 255.9
Newman Airport 10/05 13:00 22.8 17 3.45 -3.5 20 28 1018.6 0 8.5 16.9 19.2 49.3 33.2 110.4
Norseman Airport 10/05 13:00 19.4 51 8.51 9 13 24 1027.7 0 19.1 24.7 37.4 97.9 91.6 315.3
North Island 10/05 13:00 25.3 28 6.55 5.5 28 33 1021.2 0 14.8 20.3 28.0 73.0 63.2 216.3
Northam 10/05 09:00 12.9 67 7.55 6.9 4 1013.1 0 17.4 24.5 36.1 94.5 85.8 294.1
Onslow Airport 10/05 13:00 27.9 27 7.3 7.2 20 26 1017.1 0 16.2 20.6 29.4 76.8 68.8 236.2
Paraburdoo 10/05 13:00 24.4 13 2.89 -5.8 19 28 1017.3 0 7.3 15.9 17.2 44.1 27.3 89.8
Pardoo 10/05 09:00 23.5 27 5.71 3.8 1018.3 0 13.1 19.5 25.8 67.2 55.5 189.1
Paynes Find 10/05 09:00 15.8 51 6.86 5.7 6 1026.3 0 15.8 23.1 32.8 85.5 75.1 256.9
Pearce 10/05 13:00 24 26 5.66 3.3 17 24 1023.5 0 13.0 19.5 25.7 66.7 54.9 187.0
Perth 10/05 13:00 23 29 5.96 4 15 22 1024 0 13.6 20.1 27.0 70.2 58.8 200.5
Perth Airport 10/05 13:00 23.7 29 6.2 4.6 13 17 1023.9 0 14.1 20.3 27.5 71.6 60.8 207.8
Port Hedland 10/05 13:00 29.8 17 5.1 2.1 26 37 1015.2 0 11.7 17.5 22.1 57.4 45.5 154.6
Portable Btsa (Dfes) 10/05 12:50 26.9 13 3.33 -4 13 15 1013.1 0 8.1 15.9 17.8 45.8 30.4 100.9
Portable Btsb (Dfes) 10/05 12:50 20.3 35 6.16 4.4 17 20 1013.1 0 14.2 20.6 28.1 73.4 62.4 212.9
Portable Btsd (Dfes) 10/05 12:50 20.2 39 6.82 5.8 17 24 1013.1 0 15.5 21.5 30.4 79.5 69.8 239.1
Portable Btsf (Dfes) 10/05 12:00 20.8 29 5.25 2.1 24 33 1013.1 0 12.2 19.3 25.0 65.0 52.2 177.1
Portable Btsh (Dfes) 10/05 12:50 19.2 53 8.74 9.4 9 13 1013.1 0 19.6 24.6 37.7 99.0 93.6 322.2
Portable Btsj (Dfes) 10/05 12:50 23.2 30 6.24 4.7 15 19 1013.1 0 14.2 20.1 27.4 71.5 61.0 208.6
Portable Btsk (Dfes) 10/05 12:50 28.2 13 3.57 -3 9 13 1013.1 0 8.6 15.9 18.2 46.9 32.1 107.0
Portable Btsl (Dfes) 10/05 12:50 17.7 64 9.66 10.8 11 17 1013.1 0 21.7 26.4 42.0 110.4 107.1 369.5
Portable Btsm (Dfes) 10/05 12:50 23.2 19 3.95 -1.6 9 15 1013.1 0 9.5 17.2 20.4 52.6 37.7 126.3
Portable Btsn (Dfes) 10/05 12:50 20.9 25 4.55 0.2 13 17 1013.1 0 10.8 18.4 22.8 59.0 44.8 151.2
Portable Btso (Dfes) 10/05 12:50 21.4 35 6.56 5.3 9 13 1013.1 0 15.0 20.9 29.1 76.0 65.9 225.5
Ravensthorpe 10/05 09:00 13.8 69 8.22 8.2 15 1030.3 0 18.8 25.9 39.0 102.2 94.8 325.5
Red Rocks Point 10/05 13:00 18.3 78 12.19 14.4 22 26 1029.1 0 27.0 31.1 52.9 139.2 142.1 491.6
Rocky Gully South 10/05 13:00 20.5 42 7.47 7.2 13 24 1013.1 0 16.9 22.4 32.6 85.2 77.0 264.3
Roebourne Airport 10/05 13:00 28.7 18 5.09 2.1 24 37 1016.3 0 11.7 17.7 22.4 58.2 46.1 156.4
Rottnest Island 10/05 13:00 21.7 41 7.82 7.9 24 30 1023.7 0 17.6 23.0 33.7 88.2 80.6 277.0
Salmon Gums Rs 10/05 13:00 18.7 59 9.45 10.5 13 22 1013.1 0 21.2 25.8 40.7 106.8 103.1 355.5
Shannon 10/05 13:00 20.2 46 8.04 8.2 17 24 1013.1 0 18.1 23.3 34.7 90.9 84.0 288.8
Shark Bay Airport 10/05 13:00 25.9 14 3.39 -3.6 26 35 1019.4 0 8.3 16.3 18.3 47.2 31.5 104.6
Solomon Airport 10/05 13:00 24 16 3.48 -3.3 7 30 1016.3 0 8.5 16.6 18.9 48.7 32.9 109.7
Southern Cross Airport 10/05 13:00 19.9 40 6.87 5.9 19 28 1026 0 15.7 22.1 31.2 81.3 71.5 244.6
Swanbourne 10/05 13:00 22.5 47 9.39 10.9 19 22 1013.1 0 20.8 24.7 38.6 101.3 97.5 336.4
Telfer 10/05 13:00 25.9 19 4.6 0.5 15 30 1016.7 0 10.7 17.6 21.7 56.3 42.8 144.8
Thevenard Island 10/05 13:00 26.9 29 7.42 7.4 20 28 1017 0 16.5 21.0 30.1 78.7 70.9 243.5
Troughton Island 10/05 14:30 30.9 50 15.92 19.3 20 26 1011.9 0 33.9 32.1 58.5 154.7 165.7 575.7
Walpole North 10/05 13:00 20.8 46 8.33 8.8 13 20 1024.1 0 18.7 23.9 35.9 94.1 87.6 301.4
Wandering 10/05 13:00 20.6 39 6.98 6.2 13 20 1013.1 0 15.9 21.7 30.8 80.5 71.3 244.3
Warburton 10/05 14:30 21.7 33 6.29 4.7 22 33 1022.5 0 14.4 20.8 28.4 74.1 63.2 216.0
West Angelas 10/05 13:00 21.8 16 3.07 -5.1 20 33 1017.1 0 7.7 16.5 18.3 46.9 29.9 98.6
West Musgrave Airport 10/05 13:00 19.4 43 7.17 6.5 17 24 1013.1 0.2 16.3 22.2 31.9 83.5 74.6 255.6
Wiluna Airport 10/05 13:00 22.5 23 4.59 0.4 22 33 1022.3 0 10.8 18.4 22.8 58.9 44.7 151.1
Windy Harbour 10/05 09:00 15.5 58 7.67 7.4 17 1025.8 0 17.5 24.4 35.9 93.9 85.4 293.0
Witchcliffe West 10/05 13:00 20.5 67 11.92 14.2 19 28 1023.4 0 26.3 29.6 50.0 131.6 133.8 463.0
Wongan Hills 10/05 09:00 15 70 8.98 9.6 37 1026.8 0 20.3 26.7 41.3 108.3 103.0 354.6
Wyndham Airport 10/05 14:30 32.6 31 10.81 13.3 20 28 1012 0 23.3 24.0 38.7 101.9 101.3 350.8
Yampi Sound (Defence) 10/05 13:00 32.8 30 10.57 13.4 6 11 1013.1 0 22.8 23.6 37.9 99.6 98.5 341.0
York 10/05 09:00 14 65 7.84 7.5 6 1027.8 0 17.9 25.2 37.3 97.6 89.4 306.7

Last Refresh: 10-May-2026 14:33:22

Bureau of Meteorology